Terminal Aerodrome Forecast
Issued by NWS

Home | Current Version | Previous Version | Text Only | Print | Product List | Glossary On
Versions: 1 2 3 4 5 6 7 8 9 10 11 12 13 14 15 16 17 18 19
198
FTUS43 KMPX 221740
TAFRWF
TAF
KRWF 221740Z 2218/2318 04008KT 6SM BR OVC006
     FM222200 06004KT P6SM SCT008 OVC015
     FM230300 04005KT P6SM OVC007
     FM231100 09008KT 4SM BR OVC004
     FM231600 10012KT P6SM OVC008=

USA.gov is the U.S. government's official web portal to all federal, state and local government web resources and services.